• Join FlightAware (Why Join?)
  • Login
  • US Flag 
05:46AM EST


 

Airport Tracker/Info


-or-


 

Live Flight TrackerFlight Track Log ✈ N1820F ✈ 05-Jul-2013 ✈ KDXR - KOBI

Flight Track Log - Related Links

Times and Time Zones

All times are in EDT time to prevent confusion due to time zone crossing. See the N1820F flight status page for this flight to view local times or setup timezone preferences in your user account.

Time Position Orientation Groundspeed Altitude Reporting Facility
EDT Latitude Longitude Course Direction KTS MPH feet Rate Location/Type
08:57AM 41.3500 -73.5167 217° Southwest 111 128 1,700  Level New York TRACON
08:58AM 41.3333 -73.5333 217° Southwest 118 136 2,600 900 Climbing New York TRACON
08:59AM 41.2833 -73.5500 194° South 127 146 3,500 720 Climbing New York TRACON
09:00AM 41.2500 -73.5500 180° South 125 144 4,200 660 Climbing New York TRACON
09:01AM 41.2167 -73.5667 201° Southwest 119 137 4,900 720 Climbing New York TRACON
09:02AM 41.2000 -73.5833 217° Southwest 117 135 5,700 540 Climbing New York TRACON
09:03AM 41.1667 -73.5833 180° South 130 150 6,000 120 Climbing New York TRACON
09:04AM 41.1333 -73.6167 217° Southwest 151 174 6,000  Level New York TRACON
09:05AM 41.0833 -73.6333 194° South 154 177 6,000  Level New York TRACON
09:06AM 41.0500 -73.6500 201° Southwest 151 174 6,000  Level New York TRACON
09:07AM 41.0000 -73.6500 180° South 157 181 6,000  Level New York TRACON
09:08AM 40.9667 -73.6667 201° Southwest 156 180 6,000  Level New York TRACON
09:09AM 40.9167 -73.6833 194° South 157 181 6,000  Level New York TRACON
09:10AM 40.8833 -73.7000 201° Southwest 157 181 6,000  Level New York TRACON
09:11AM 40.8500 -73.7000 180° South 156 180 6,000  Level New York TRACON
09:12AM 40.8000 -73.7167 194° South 156 180 6,000  Level New York TRACON
09:13AM 40.7500 -73.7333 194° South 152 175 6,000  Level New York TRACON
09:14AM 40.7167 -73.7333 180° South 149 171 6,000  Level New York TRACON
09:15AM 40.6833 -73.7500 201° Southwest 149 171 6,000  Level New York TRACON
09:16AM 40.6333 -73.7667 194° South 149 171 6,000  Level New York TRACON
09:17AM 40.6000 -73.8000 217° Southwest 150 173 6,000  Level New York TRACON
09:18AM 40.5667 -73.8167 201° Southwest 147 169 6,000  Level New York TRACON
09:19AM 40.5167 -73.8500 207° Southwest 148 170 6,000  Level New York TRACON
09:20AM 40.4833 -73.8667 201° Southwest 146 168 6,000  Level New York TRACON
09:21AM 40.4500 -73.9000 217° Southwest 146 168 6,000 -60 Level New York TRACON
09:23AM 40.3877 -73.9402 206° Southwest  Level FlightAware Approximate
09:30AM 40.1516 -74.1159 201° Southwest  Level FlightAware Approximate
09:31AM 40.1149 -74.1343 201° Southwest  Level FlightAware Approximate
09:32AM 40.0778 -74.1502 182° South  Level FlightAware Approximate
09:33AM 40.0385 -74.1520 182° South  Level FlightAware Approximate
09:34AM 39.9993 -74.1537 182° South  Level FlightAware Approximate
09:35AM 39.9600 -74.1554 182° South  Level FlightAware Approximate
09:36AM 39.9208 -74.1571 182° South  Level FlightAware Approximate
09:37AM 39.8815 -74.1588 182° South  Level FlightAware Approximate
09:38AM 39.8422 -74.1605 182° South  Level FlightAware Approximate
09:39AM 39.8030 -74.1622 182° South  Level FlightAware Approximate
09:40AM 39.7637 -74.1639 182° South  Level FlightAware Approximate
09:41AM 39.7245 -74.1656 182° South  Level FlightAware Approximate
09:41AM 39.6594 -74.1900 228° Southwest 150 173 5,800  Level Washington Center
09:42AM 39.6852 -74.1667 180° South  Level FlightAware Approximate
09:43AM 39.6527 -74.1866 228° Southwest  Level FlightAware Approximate
09:43AM 39.6286 -74.2475 235° Southwest  Level FlightAware Approximate
09:44AM 39.6262 -74.2243 228° Southwest  Level FlightAware Approximate
09:45AM 39.5997 -74.2619 228° Southwest  Level FlightAware Approximate
09:45AM 39.5425 -74.3617 229° Southwest 154 177 3,000  Level Washington Center
09:46AM 39.5731 -74.2995 228° Southwest  Level FlightAware Approximate
09:47AM 39.5466 -74.3371 228° Southwest  Level FlightAware Approximate
09:47AM 39.5065 -74.4102 270° West  Level Estimated
09:50AM 39.4684 -74.5391 229° Southwest  Level FlightAware Approximate
09:50AM 39.4192 -74.5358 223° Southwest 142 163 3,000  Level Washington Center
09:52AM 39.4169 -74.6163 237° Southwest  Level FlightAware Approximate
09:54AM 39.3147 -74.6675 191° South  Level Estimated
09:55AM 39.2856 -74.7019 223° Southwest  Level FlightAware Approximate
09:59AM 39.2167 -74.7833 191° South  Level FlightAware Approximate
10:00AM 39.2191 -74.7947 191° South  Level Estimated